Terminal Aerodrome Forecast
Issued by NWS Wilmington, NC

Home | Current Version | Previous Version | Text Only | Print | Product List | Glossary On
Versions: 1 2 3 4 5 6 7 8 9 10 11 12 13 14 15 16 17 18 19 20 21 22 23 24 25 26 27
000
FTUS42 KILM 242300
TAFMYR
TAF
KMYR 242327Z 2500/2524 24011G20KT 6SM -SHRA BR SCT004 OVC030
      TEMPO 2500/2503 2SM +RA BR BKN010
     FM250300 20012KT 4SM -RA BR SCT008 OVC015
     FM250900 26011G20KT 6SM -RA BKN007
     FM251300 29010KT P6SM SCT050 BKN100
     FM251700 30010KT P6SM SKC
      AMD LTD TO CLD VIS AND WIND 2504/2511=

USA.gov is the U.S. government's official web portal to all federal, state and local government web resources and services.